Weather at Pace Nolf Heliport

Public forecast

Using degrees Fahrenheit for public forecast. Weather courtesy of forecast.io.

Closest aviation weather report (METAR) to Pace Nolf Heliport

Closest report is Whiting Field Naval Air Station South Airport, 8.9 nm (16.5 km) E. Retrieved 2022/05/22 22:56 UTC (43 minutes ago):

KNDZ 222256Z 08006KT 10SM -RA FEW009 BKN065 OVC250 22/21 A3009 RMK AO2 SLP174 TSB23E47 CB DSNT MOV NE T1 SET T02170211 PNO

Closest aviation forecast (TAF) to Pace Nolf Heliport

Forecast is more than 12 hours old.

Closest forecast is Whiting Field Naval Air Station - North, 9.1 nm (16.8 km) E. Retrieved 2015/11/30 15:15 UTC (6 years ago):

TAF COR KNSE 301500Z 3015/0115 13004KT 9999 FEW040 BKN200 QNH3002INS FM301800 15006KT 9999 SCT040 SCT150 BKN200 QNH2997INS TEMPO 3019/0100 BKN040 FM010300 17003KT 6000 BR SCT008 BKN035 OVC150 QNH3001INS TEMPO 0103/0106 1600 BR BKN004 OVC008 FM010700 16003KT 0800 FG VV001 QNH3002INS FM011400 16006KT 4800 BR VCSH SCT002 BKN010 OVC050 COR QNH2996INS T26/3019Z T18/0110Z COR 1508 FN20031